createdAt,value
2019-02-02T00:00:21.367Z,66.64
2019-02-02T00:03:09.146Z,66.57
2019-02-02T00:05:56.774Z,66.72
2019-02-02T00:08:44.198Z,66.76
2019-02-02T00:11:31.930Z,66.70
2019-02-02T00:14:19.662Z,66.62
2019-02-02T00:17:06.982Z,66.32
2019-02-02T00:19:55.865Z,66.00
2019-02-02T00:22:43.277Z,66.15
2019-02-02T00:25:30.905Z,66.77
2019-02-02T00:28:18.530Z,66.34
2019-02-02T00:31:06.258Z,66.12
2019-02-02T00:33:53.999Z,67.55
2019-02-02T00:36:41.308Z,69.00
2019-02-02T00:39:29.153Z,70.21
2019-02-02T00:42:16.670Z,69.01
2019-02-02T00:45:07.696Z,68.24
2019-02-02T00:47:55.121Z,68.52
2019-02-02T00:50:43.191Z,67.82
2019-02-02T00:53:31.078Z,67.51
2019-02-02T00:56:18.813Z,67.24
2019-02-02T00:59:06.547Z,66.84
2019-02-02T01:01:54.076Z,66.49
2019-02-02T01:04:41.590Z,66.11
2019-02-02T01:07:28.603Z,66.13
2019-02-02T01:10:19.373Z,66.51
2019-02-02T01:13:06.829Z,66.58
2019-02-02T01:15:54.050Z,66.37
2019-02-02T01:18:41.473Z,66.51
2019-02-02T01:21:29.304Z,66.36
2019-02-02T01:24:16.504Z,66.42
2019-02-02T01:27:04.156Z,66.75
2019-02-02T01:29:52.091Z,68.11
2019-02-02T01:32:39.516Z,70.12
2019-02-02T01:35:27.354Z,70.86
2019-02-02T01:38:14.872Z,70.80
2019-02-02T01:41:02.367Z,70.83
2019-02-02T01:43:49.928Z,69.50
2019-02-02T01:46:37.248Z,68.56
2019-02-02T01:49:25.800Z,67.90
2019-02-02T01:52:13.323Z,67.83
2019-02-02T01:55:01.167Z,67.48
2019-02-02T01:57:48.278Z,67.25
2019-02-02T02:00:36.123Z,67.12
2019-02-02T02:03:23.762Z,67.05
2019-02-02T02:06:11.577Z,66.58
2019-02-02T02:08:58.897Z,66.76
2019-02-02T02:11:46.215Z,67.02
2019-02-02T02:14:33.842Z,69.13
2019-02-02T02:17:21.476Z,71.80
2019-02-02T02:20:11.651Z,71.39
2019-02-02T02:22:58.781Z,74.10
2019-02-02T02:25:46.511Z,76.24
2019-02-02T02:28:33.638Z,78.45
2019-02-02T02:31:20.948Z,78.68
2019-02-02T02:34:08.575Z,77.75
2019-02-02T02:36:55.811Z,75.43
2019-02-02T02:39:43.542Z,73.61
2019-02-02T02:42:31.362Z,72.03
2019-02-02T02:45:19.397Z,70.42
2019-02-02T02:48:07.230Z,69.15
2019-02-02T02:50:54.757Z,69.02
2019-02-02T02:53:41.975Z,69.20
2019-02-02T02:56:29.300Z,69.17
2019-02-02T02:59:17.030Z,70.04
2019-02-02T03:02:04.759Z,70.59
2019-02-02T03:04:52.188Z,70.92
2019-02-02T03:07:40.125Z,70.10
2019-02-02T03:10:27.545Z,69.46
2019-02-02T03:13:15.073Z,69.59
2019-02-02T03:16:02.699Z,69.04
2019-02-02T03:18:50.524Z,69.03
2019-02-02T03:21:37.958Z,69.55
2019-02-02T03:24:25.385Z,71.03
2019-02-02T03:27:12.958Z,74.14
2019-02-02T03:30:00.747Z,75.60
2019-02-02T03:32:48.283Z,75.42
2019-02-02T03:35:36.206Z,73.92
2019-02-02T03:38:23.838Z,72.79
2019-02-02T03:41:11.822Z,71.30
2019-02-02T03:43:59.200Z,71.63
2019-02-02T03:46:46.718Z,71.62
2019-02-02T03:49:35.169Z,70.86
2019-02-02T03:52:22.498Z,69.56
2019-02-02T03:55:12.782Z,69.13
2019-02-02T03:58:00.204Z,68.84
2019-02-02T04:00:47.833Z,68.55
2019-02-02T04:03:35.368Z,67.91
2019-02-02T04:06:22.578Z,67.58
2019-02-02T04:09:10.007Z,67.55
2019-02-02T04:11:57.124Z,67.79
2019-02-02T04:14:44.549Z,68.09
2019-02-02T04:17:31.970Z,69.04
2019-02-02T04:20:22.192Z,69.00
2019-02-02T04:23:09.705Z,69.23
2019-02-02T04:25:58.849Z,68.90
2019-02-02T04:28:46.065Z,69.76
2019-02-02T04:31:33.899Z,73.43
2019-02-02T04:34:21.325Z,74.18
2019-02-02T04:37:08.748Z,73.88
2019-02-02T04:39:55.763Z,72.60
2019-02-02T04:42:43.448Z,70.78
2019-02-02T04:45:31.019Z,69.66
2019-02-02T04:48:18.545Z,68.62
2019-02-02T04:51:06.189Z,68.03
2019-02-02T04:53:53.599Z,67.50
2019-02-02T04:56:41.330Z,67.29
2019-02-02T04:59:29.590Z,67.07
2019-02-02T05:02:18.438Z,66.88
2019-02-02T05:05:09.227Z,66.70
2019-02-02T05:07:56.658Z,66.54
2019-02-02T05:10:44.289Z,66.43
2019-02-02T05:13:31.816Z,66.31
2019-02-02T05:16:19.552Z,66.11
2019-02-02T05:19:07.380Z,66.14
2019-02-02T05:21:54.823Z,67.80
2019-02-02T05:24:42.533Z,71.35
2019-02-02T05:27:30.365Z,73.31
2019-02-02T05:30:20.959Z,73.77
2019-02-02T05:33:08.495Z,74.54
2019-02-02T05:35:55.915Z,73.76
2019-02-02T05:38:43.263Z,72.67
2019-02-02T05:41:30.765Z,72.78
2019-02-02T05:44:18.497Z,73.57
2019-02-02T05:47:05.944Z,75.45
2019-02-02T05:49:53.548Z,76.27
2019-02-02T05:52:41.076Z,76.31
2019-02-02T05:55:28.292Z,77.20
2019-02-02T05:58:15.921Z,77.26
2019-02-02T06:01:03.044Z,75.09
2019-02-02T06:03:50.567Z,72.96
2019-02-02T06:06:37.992Z,71.33
2019-02-02T06:09:25.417Z,70.43
2019-02-02T06:12:13.042Z,69.91
2019-02-02T06:15:00.672Z,69.41
2019-02-02T06:17:48.198Z,69.08
2019-02-02T06:20:35.625Z,69.05
2019-02-02T06:23:22.839Z,70.53
2019-02-02T06:26:10.265Z,70.21
2019-02-02T06:28:57.798Z,69.48
2019-02-02T06:31:45.418Z,68.86
2019-02-02T06:34:32.844Z,68.39
2019-02-02T06:37:20.165Z,68.12
2019-02-02T06:40:10.357Z,67.91
2019-02-02T06:42:57.675Z,67.72
2019-02-02T06:45:45.098Z,67.59
2019-02-02T06:48:32.741Z,67.39
2019-02-02T06:51:20.460Z,67.36
2019-02-02T06:54:08.294Z,67.24
2019-02-02T06:56:55.308Z,67.12
2019-02-02T06:59:42.833Z,67.07
2019-02-02T07:02:30.154Z,67.08
2019-02-02T07:05:17.890Z,66.99
2019-02-02T07:08:05.416Z,66.88
2019-02-02T07:10:52.752Z,66.78
2019-02-02T07:13:40.375Z,66.60
2019-02-02T07:16:30.757Z,66.38
2019-02-02T07:19:18.294Z,66.54
2019-02-02T07:22:05.919Z,66.80
2019-02-02T07:24:53.161Z,67.96
2019-02-02T07:27:40.861Z,68.40
2019-02-02T07:30:29.453Z,68.43
2019-02-02T07:33:17.348Z,67.93
2019-02-02T07:36:04.876Z,68.35
2019-02-02T07:38:53.126Z,69.20
2019-02-02T07:41:41.211Z,69.63
2019-02-02T07:44:29.208Z,69.22
2019-02-02T07:47:16.780Z,69.95
2019-02-02T07:50:06.196Z,70.91
2019-02-02T07:52:53.931Z,71.18
2019-02-02T07:55:41.041Z,71.15
2019-02-02T07:58:28.671Z,70.25
2019-02-02T08:01:18.169Z,69.58
2019-02-02T08:04:05.973Z,68.81
2019-02-02T08:06:53.296Z,68.56
2019-02-02T08:09:40.721Z,68.48
2019-02-02T08:12:28.248Z,68.13
2019-02-02T08:15:18.333Z,67.97
2019-02-02T08:18:06.492Z,67.83
2019-02-02T08:20:53.798Z,67.84
2019-02-02T08:23:41.630Z,67.68
2019-02-02T08:26:31.925Z,68.60
2019-02-02T08:29:19.556Z,68.47
2019-02-02T08:32:07.723Z,68.34
2019-02-02T08:34:55.331Z,69.57
2019-02-02T08:37:42.646Z,68.61
2019-02-02T08:40:30.269Z,68.20
2019-02-02T08:43:17.897Z,68.14
2019-02-02T08:46:05.449Z,68.67
2019-02-02T08:48:52.747Z,68.42
2019-02-02T08:51:40.275Z,68.29
2019-02-02T08:54:27.905Z,68.03
2019-02-02T08:57:15.343Z,69.06
2019-02-02T09:00:02.957Z,69.30
2019-02-02T09:02:50.696Z,69.83
2019-02-02T09:05:38.425Z,69.77
2019-02-02T09:08:26.050Z,70.03
2019-02-02T09:11:13.366Z,69.49
2019-02-02T09:14:00.688Z,71.32
2019-02-02T09:16:48.419Z,72.87
2019-02-02T09:19:35.847Z,73.44
2019-02-02T09:22:23.370Z,74.88
2019-02-02T09:25:13.001Z,73.99
2019-02-02T09:28:00.702Z,73.34
2019-02-02T09:30:48.012Z,73.97
2019-02-02T09:33:35.234Z,74.10
2019-02-02T09:36:22.954Z,74.11
2019-02-02T09:39:10.594Z,74.72
2019-02-02T09:41:59.434Z,75.67
2019-02-02T09:44:46.962Z,75.63
2019-02-02T09:47:34.486Z,75.71
2019-02-02T09:50:23.677Z,73.87
2019-02-02T09:53:11.177Z,72.79
2019-02-02T09:55:59.118Z,71.39
2019-02-02T09:58:46.892Z,70.60
2019-02-02T10:01:34.269Z,70.30
2019-02-02T10:04:21.795Z,69.82
2019-02-02T10:07:09.219Z,69.18
2019-02-02T10:09:56.849Z,69.60
2019-02-02T10:12:44.272Z,69.38
2019-02-02T10:15:31.592Z,69.01
2019-02-02T10:18:19.122Z,68.37
2019-02-02T10:21:06.648Z,67.91
2019-02-02T10:23:54.379Z,67.54
2019-02-02T10:26:42.006Z,67.28
2019-02-02T10:29:29.845Z,67.13
2019-02-02T10:32:17.267Z,66.95
2019-02-02T10:35:05.699Z,66.84
2019-02-02T10:37:53.342Z,66.66
2019-02-02T10:40:40.765Z,66.53
2019-02-02T10:43:28.000Z,66.40
2019-02-02T10:46:15.307Z,66.22
2019-02-02T10:49:02.628Z,66.00
2019-02-02T10:51:50.363Z,66.49
2019-02-02T10:54:37.883Z,66.29
2019-02-02T10:57:25.321Z,66.46
2019-02-02T11:00:19.293Z,66.65
2019-02-02T11:03:06.918Z,66.51
2019-02-02T11:05:54.334Z,66.34
2019-02-02T11:08:41.762Z,67.51
2019-02-02T11:11:29.290Z,67.76
2019-02-02T11:14:16.980Z,67.24
2019-02-02T11:17:04.759Z,67.02
2019-02-02T11:19:52.327Z,66.79
2019-02-02T11:22:40.186Z,66.53
2019-02-02T11:25:28.401Z,66.39
2019-02-02T11:28:15.906Z,66.30
2019-02-02T11:31:03.307Z,66.18
2019-02-02T11:33:50.835Z,66.01
2019-02-02T11:36:38.667Z,65.99
2019-02-02T11:39:25.988Z,65.87
2019-02-02T11:42:13.512Z,65.74
2019-02-02T11:45:01.043Z,65.74
2019-02-02T11:47:48.768Z,65.65
2019-02-02T11:50:36.193Z,65.57
2019-02-02T11:53:23.722Z,65.23
2019-02-02T11:56:11.144Z,65.21
2019-02-02T11:58:58.569Z,65.22
2019-02-02T12:01:45.898Z,65.14
2019-02-02T12:04:33.418Z,65.04
2019-02-02T12:07:21.871Z,64.95
2019-02-02T12:10:12.566Z,64.86
2019-02-02T12:13:00.301Z,64.81
2019-02-02T12:15:47.926Z,64.83
2019-02-02T12:18:35.761Z,64.81
2019-02-02T12:21:23.491Z,64.87
2019-02-02T12:24:15.907Z,64.54
2019-02-02T12:26:59.569Z,64.87
2019-02-02T12:29:47.196Z,67.61
2019-02-02T12:32:36.651Z,68.23
2019-02-02T12:35:25.890Z,67.75
2019-02-02T12:38:13.565Z,68.26
2019-02-02T12:41:01.475Z,67.46
2019-02-02T12:43:49.025Z,67.00
2019-02-02T12:46:36.860Z,66.77
2019-02-02T12:49:23.975Z,66.69
2019-02-02T12:52:11.812Z,67.04
2019-02-02T12:54:59.336Z,66.94
2019-02-02T12:57:47.070Z,66.62
2019-02-02T13:00:34.399Z,66.36
2019-02-02T13:03:22.121Z,66.24
2019-02-02T13:06:09.549Z,66.02
2019-02-02T13:08:56.976Z,65.95
2019-02-02T13:11:44.806Z,65.87
2019-02-02T13:14:32.122Z,65.73
2019-02-02T13:17:19.548Z,65.58
2019-02-02T13:20:12.386Z,65.51
2019-02-02T13:23:00.027Z,65.35
2019-02-02T13:25:47.822Z,65.58
2019-02-02T13:28:35.390Z,65.64
2019-02-02T13:31:22.640Z,66.14
2019-02-02T13:34:10.338Z,66.09
2019-02-02T13:36:57.661Z,65.93
2019-02-02T13:39:44.980Z,65.77
2019-02-02T13:42:32.405Z,65.54
2019-02-02T13:45:21.395Z,65.50
2019-02-02T13:48:09.198Z,65.47
2019-02-02T13:50:56.518Z,66.78
2019-02-02T13:53:43.637Z,67.41
2019-02-02T13:56:31.369Z,66.81
2019-02-02T13:59:18.896Z,66.50
2019-02-02T14:02:06.421Z,66.36
2019-02-02T14:04:53.538Z,66.20
2019-02-02T14:07:41.577Z,66.09
2019-02-02T14:10:31.061Z,65.96
2019-02-02T14:13:18.677Z,65.98
2019-02-02T14:16:05.900Z,65.80
2019-02-02T14:18:53.116Z,65.78
2019-02-02T14:21:40.546Z,65.72
2019-02-02T14:24:27.861Z,65.68
2019-02-02T14:27:15.081Z,65.58
2019-02-02T14:30:02.301Z,65.51
2019-02-02T14:32:49.927Z,65.43
2019-02-02T14:35:37.353Z,65.52
2019-02-02T14:38:25.292Z,65.56
2019-02-02T14:41:13.122Z,65.55
2019-02-02T14:44:00.766Z,65.51
2019-02-02T14:46:48.176Z,65.50
2019-02-02T14:49:35.599Z,65.47
2019-02-02T14:52:22.921Z,65.42
2019-02-02T14:55:16.285Z,65.41
2019-02-02T14:58:05.042Z,65.43
2019-02-02T15:00:54.001Z,65.43
2019-02-02T15:03:41.466Z,65.72
2019-02-02T15:06:28.743Z,65.77
2019-02-02T15:09:15.762Z,66.05
2019-02-02T15:12:02.843Z,66.15
2019-02-02T15:14:50.196Z,66.16
2019-02-02T15:17:37.316Z,66.05
2019-02-02T15:20:30.527Z,65.97
2019-02-02T15:23:17.936Z,65.95
2019-02-02T15:26:05.834Z,65.95
2019-02-02T15:28:52.846Z,67.12
2019-02-02T15:31:40.276Z,67.18
2019-02-02T15:34:27.797Z,67.25
2019-02-02T15:37:15.530Z,67.20
2019-02-02T15:40:03.053Z,67.22
2019-02-02T15:42:50.687Z,67.13
2019-02-02T15:45:38.109Z,66.88
2019-02-02T15:48:25.739Z,66.63
2019-02-02T15:51:13.177Z,66.63
2019-02-02T15:54:00.483Z,67.18
2019-02-02T15:56:48.132Z,67.06
2019-02-02T15:59:38.904Z,66.92
2019-02-02T16:02:26.607Z,67.00
2019-02-02T16:05:16.732Z,66.86
2019-02-02T16:08:10.468Z,66.79
2019-02-02T16:10:57.624Z,66.58
2019-02-02T16:13:45.253Z,66.38
2019-02-02T16:16:32.984Z,66.32
2019-02-02T16:19:20.418Z,66.31
2019-02-02T16:22:08.344Z,66.24
2019-02-02T16:24:56.281Z,66.21
2019-02-02T16:27:44.011Z,66.16
2019-02-02T16:30:31.535Z,66.17
2019-02-02T16:33:18.857Z,66.05
2019-02-02T16:36:06.898Z,65.95
2019-02-02T16:38:54.320Z,65.88
2019-02-02T16:41:41.551Z,65.96
2019-02-02T16:44:29.376Z,65.96
2019-02-02T16:47:17.102Z,65.93
2019-02-02T16:50:06.189Z,66.02
2019-02-02T16:52:53.898Z,65.97
2019-02-02T16:55:41.536Z,65.86
2019-02-02T16:58:29.156Z,65.70
2019-02-02T17:01:16.805Z,65.70
2019-02-02T17:04:15.077Z,65.97
2019-02-02T17:06:53.679Z,66.64
2019-02-02T17:09:41.572Z,66.75
2019-02-02T17:12:29.143Z,66.74
2019-02-02T17:15:16.612Z,66.53
2019-02-02T17:18:04.499Z,66.41
2019-02-02T17:20:51.616Z,66.23
2019-02-02T17:23:39.455Z,66.11
2019-02-02T17:26:26.775Z,66.00
2019-02-02T17:29:14.503Z,66.02
2019-02-02T17:32:02.133Z,66.04
2019-02-02T17:34:49.465Z,66.00
2019-02-02T17:37:36.879Z,65.94
2019-02-02T17:40:26.666Z,65.94
2019-02-02T17:43:13.922Z,65.83
2019-02-02T17:46:03.057Z,65.76
2019-02-02T17:48:50.260Z,65.79
2019-02-02T17:51:37.693Z,65.85
2019-02-02T17:54:25.011Z,65.88
2019-02-02T17:57:12.434Z,65.91
2019-02-02T18:00:00.615Z,65.92
2019-02-02T18:02:48.513Z,65.94
2019-02-02T18:05:35.729Z,65.97
2019-02-02T18:08:23.502Z,65.92
2019-02-02T18:11:11.233Z,65.94
2019-02-02T18:13:59.640Z,66.95
2019-02-02T18:16:46.752Z,66.88
2019-02-02T18:19:34.383Z,66.77
2019-02-02T18:22:21.808Z,66.86
2019-02-02T18:25:11.690Z,67.12
2019-02-02T18:27:58.882Z,67.06
2019-02-02T18:30:51.045Z,66.85
2019-02-02T18:33:38.877Z,67.14
2019-02-02T18:36:29.589Z,67.11
2019-02-02T18:39:17.604Z,66.94
2019-02-02T18:42:05.244Z,66.95
2019-02-02T18:44:52.698Z,66.73
2019-02-02T18:47:40.399Z,66.59
2019-02-02T18:50:28.614Z,66.49
2019-02-02T18:53:16.272Z,66.64
2019-02-02T18:56:04.239Z,66.71
2019-02-02T18:58:51.833Z,66.85
2019-02-02T19:01:38.850Z,66.78
2019-02-02T19:04:26.275Z,66.58
2019-02-02T19:07:13.697Z,66.87
2019-02-02T19:10:01.018Z,68.00
2019-02-02T19:12:48.447Z,68.90
2019-02-02T19:15:35.972Z,68.30
2019-02-02T19:18:23.504Z,67.88
2019-02-02T19:21:11.330Z,67.56
2019-02-02T19:23:59.062Z,67.28
2019-02-02T19:26:46.084Z,67.15
2019-02-02T19:29:33.811Z,67.11
2019-02-02T19:32:20.927Z,67.18
2019-02-02T19:35:16.310Z,67.21
2019-02-02T19:37:59.688Z,67.63
2019-02-02T19:40:47.193Z,67.54
2019-02-02T19:43:34.614Z,67.45
2019-02-02T19:46:22.037Z,67.41
2019-02-02T19:49:09.465Z,67.52
2019-02-02T19:51:58.320Z,67.69
2019-02-02T19:54:45.536Z,67.96
2019-02-02T19:57:32.870Z,67.73
2019-02-02T20:00:28.499Z,67.64
2019-02-02T20:03:16.105Z,67.68
2019-02-02T20:06:03.531Z,67.79
2019-02-02T20:08:51.057Z,69.25
2019-02-02T20:11:38.589Z,69.82
2019-02-02T20:14:25.703Z,69.45
2019-02-02T20:17:14.797Z,68.96
2019-02-02T20:20:01.882Z,69.03
2019-02-02T20:22:49.802Z,68.59
2019-02-02T20:25:37.446Z,68.27
2019-02-02T20:28:25.278Z,68.15
2019-02-02T20:31:12.617Z,68.04
2019-02-02T20:34:00.050Z,67.96
2019-02-02T20:36:47.446Z,67.88
2019-02-02T20:39:35.278Z,67.72
2019-02-02T20:42:22.678Z,67.57
2019-02-02T20:45:13.096Z,67.44
2019-02-02T20:48:00.521Z,67.25
2019-02-02T20:50:48.456Z,67.07
2019-02-02T20:53:36.392Z,67.13
2019-02-02T20:56:24.224Z,67.07
2019-02-02T20:59:11.548Z,67.01
2019-02-02T21:01:59.077Z,66.87
2019-02-02T21:04:46.704Z,66.77
2019-02-02T21:07:34.332Z,66.68
2019-02-02T21:10:23.635Z,66.60
2019-02-02T21:13:10.820Z,66.57
2019-02-02T21:15:58.244Z,66.50
2019-02-02T21:18:45.472Z,66.41
2019-02-02T21:21:32.887Z,66.43
2019-02-02T21:24:20.515Z,66.41
2019-02-02T21:27:07.629Z,66.38
2019-02-02T21:29:55.055Z,66.31
2019-02-02T21:32:46.749Z,66.23
2019-02-02T21:35:34.621Z,66.19
2019-02-02T21:38:22.143Z,66.30
2019-02-02T21:41:09.473Z,66.28
2019-02-02T21:43:56.753Z,66.28
2019-02-02T21:46:44.322Z,66.29
2019-02-02T21:49:31.735Z,66.30
2019-02-02T21:52:19.463Z,66.31
2019-02-02T21:55:10.064Z,66.24
2019-02-02T21:57:57.692Z,66.23
2019-02-02T22:00:45.528Z,66.23
2019-02-02T22:03:32.646Z,66.21
2019-02-02T22:06:20.170Z,66.23
2019-02-02T22:09:08.635Z,66.21
2019-02-02T22:11:56.043Z,66.21
2019-02-02T22:14:43.685Z,66.22
2019-02-02T22:17:31.198Z,66.21
2019-02-02T22:20:19.029Z,66.26
2019-02-02T22:23:06.145Z,66.30
2019-02-02T22:25:53.366Z,66.21
2019-02-02T22:28:40.994Z,66.37
2019-02-02T22:31:28.628Z,66.39
2019-02-02T22:34:16.047Z,66.29
2019-02-02T22:37:03.598Z,66.22
2019-02-02T22:39:51.309Z,66.16
2019-02-02T22:42:38.936Z,66.12
2019-02-02T22:45:26.152Z,66.09
2019-02-02T22:48:13.475Z,66.00
2019-02-02T22:51:01.208Z,65.99
2019-02-02T22:53:48.425Z,66.00
2019-02-02T22:56:35.951Z,66.00
2019-02-02T22:59:23.276Z,65.96
2019-02-02T23:02:11.722Z,65.95
2019-02-02T23:05:02.741Z,65.91
2019-02-02T23:07:53.092Z,65.91
2019-02-02T23:10:46.490Z,65.79
2019-02-02T23:13:45.923Z,65.74
2019-02-02T23:16:33.213Z,65.79
2019-02-02T23:19:20.636Z,65.88
2019-02-02T23:22:08.160Z,66.00
2019-02-02T23:24:55.892Z,65.95
2019-02-02T23:27:43.317Z,65.83
2019-02-02T23:30:30.793Z,65.81
2019-02-02T23:33:18.285Z,66.37
2019-02-02T23:36:06.146Z,67.87
2019-02-02T23:38:53.532Z,67.66
2019-02-02T23:41:41.053Z,67.85
2019-02-02T23:44:28.884Z,68.86
2019-02-02T23:47:16.411Z,67.97
2019-02-02T23:50:05.069Z,68.28
2019-02-02T23:52:52.717Z,69.06
2019-02-02T23:55:40.537Z,68.86
2019-02-02T23:58:27.965Z,68.14
